createdAt,value
2019-02-23T00:00:57.499Z,16.33
2019-02-23T00:03:26.258Z,16.80
2019-02-23T00:05:55.137Z,17.73
2019-02-23T00:08:24.207Z,16.93
2019-02-23T00:10:53.066Z,17.50
2019-02-23T00:13:22.022Z,18.90
2019-02-23T00:15:50.829Z,17.97
2019-02-23T00:18:19.706Z,17.43
2019-02-23T00:20:48.506Z,17.07
2019-02-23T00:23:17.311Z,17.77
2019-02-23T00:25:46.120Z,18.63
2019-02-23T00:28:15.145Z,17.17
2019-02-23T00:30:43.962Z,17.67
2019-02-23T00:33:12.774Z,18.70
2019-02-23T00:35:41.544Z,17.30
2019-02-23T00:38:10.618Z,17.73
2019-02-23T00:40:39.431Z,17.70
2019-02-23T00:43:08.191Z,17.97
2019-02-23T00:45:37.017Z,17.10
2019-02-23T00:48:06.082Z,17.93
2019-02-23T00:50:34.855Z,16.90
2019-02-23T00:53:04.138Z,16.43
2019-02-23T00:55:32.969Z,17.10
2019-02-23T00:58:01.774Z,17.10
2019-02-23T01:00:30.567Z,17.13
2019-02-23T01:02:59.402Z,16.70
2019-02-23T01:05:28.232Z,18.10
2019-02-23T01:07:57.060Z,17.53
2019-02-23T01:10:26.122Z,15.87
2019-02-23T01:12:54.926Z,17.33
2019-02-23T01:15:23.729Z,17.30
2019-02-23T01:17:52.605Z,16.50
2019-02-23T01:22:58.075Z,16.47
2019-02-23T01:25:26.955Z,15.90
2019-02-23T01:27:55.938Z,16.03
2019-02-23T01:30:24.855Z,16.00
2019-02-23T01:32:53.699Z,16.10
2019-02-23T01:35:22.563Z,15.83
2019-02-23T01:37:51.385Z,15.93
2019-02-23T01:40:20.241Z,17.23
2019-02-23T01:42:49.030Z,16.37
2019-02-23T01:45:18.061Z,16.10
2019-02-23T01:47:46.873Z,17.27
2019-02-23T01:50:15.892Z,16.00
2019-02-23T01:52:44.684Z,16.57
2019-02-23T01:55:13.658Z,15.57
2019-02-23T01:57:42.451Z,16.97
2019-02-23T02:00:13.620Z,15.27
2019-02-23T02:02:43.118Z,15.03
2019-02-23T02:05:12.419Z,16.30
2019-02-23T02:07:41.237Z,15.43
2019-02-23T02:10:11.255Z,16.43
2019-02-23T02:12:40.012Z,16.40
2019-02-23T02:15:11.379Z,16.62
2019-02-23T02:17:40.304Z,15.67
2019-02-23T02:20:11.460Z,16.27
2019-02-23T02:22:40.191Z,17.13
2019-02-23T02:25:09.472Z,16.20
2019-02-23T02:27:38.487Z,16.07
2019-02-23T02:30:10.335Z,15.03
2019-02-23T02:32:39.152Z,16.93
2019-02-23T02:35:09.765Z,16.27
2019-02-23T02:37:38.758Z,16.57
2019-02-23T02:40:08.827Z,16.57
2019-02-23T02:42:37.682Z,17.63
2019-02-23T02:45:08.227Z,15.40
2019-02-23T02:47:37.062Z,15.70
2019-02-23T02:50:07.058Z,15.13
2019-02-23T02:52:35.950Z,16.43
2019-02-23T02:55:05.532Z,17.07
2019-02-23T02:57:34.363Z,17.07
2019-02-23T03:00:03.415Z,16.10
2019-02-23T03:02:32.271Z,15.63
2019-02-23T03:05:01.117Z,16.37
2019-02-23T03:07:29.917Z,16.27
2019-02-23T03:09:58.901Z,15.93
2019-02-23T03:12:27.721Z,16.67
2019-02-23T03:14:56.498Z,15.13
2019-02-23T03:17:25.344Z,15.57
2019-02-23T03:19:54.254Z,15.23
2019-02-23T03:22:23.058Z,15.80
2019-02-23T03:24:51.877Z,16.17
2019-02-23T03:27:20.669Z,15.70
2019-02-23T03:29:49.750Z,16.37
2019-02-23T03:32:18.640Z,15.50
2019-02-23T03:34:47.448Z,15.03
2019-02-23T03:37:16.251Z,16.03
2019-02-23T03:39:45.168Z,15.10
2019-02-23T03:42:14.055Z,16.33
2019-02-23T03:44:43.106Z,15.07
2019-02-23T03:47:11.935Z,15.63
2019-02-23T03:49:40.968Z,15.33
2019-02-23T03:52:09.801Z,15.20
2019-02-23T03:54:38.613Z,15.53
2019-02-23T03:57:07.436Z,15.20
2019-02-23T03:59:36.516Z,16.53
2019-02-23T04:02:05.357Z,15.67
2019-02-23T04:04:34.177Z,16.07
2019-02-23T04:07:03.044Z,14.87
2019-02-23T04:09:32.961Z,16.00
2019-02-23T04:12:01.926Z,15.20
2019-02-23T04:14:30.784Z,15.60
2019-02-23T04:16:59.626Z,15.70
2019-02-23T04:19:29.479Z,15.90
2019-02-23T04:21:58.312Z,15.13
2019-02-23T04:24:27.166Z,17.00
2019-02-23T04:26:55.950Z,16.17
2019-02-23T04:29:24.759Z,16.50
2019-02-23T04:31:53.566Z,16.07
2019-02-23T04:34:22.414Z,15.13
2019-02-23T04:36:51.282Z,16.00
2019-02-23T04:39:20.169Z,16.87
2019-02-23T04:41:48.969Z,15.80
2019-02-23T04:44:17.795Z,15.90
2019-02-23T04:46:46.610Z,15.90
2019-02-23T04:49:15.518Z,16.57
2019-02-23T04:51:44.698Z,15.37
2019-02-23T04:54:13.460Z,15.50
2019-02-23T04:56:42.324Z,15.37
2019-02-23T04:59:11.298Z,15.53
2019-02-23T05:01:40.091Z,15.70
2019-02-23T05:04:08.975Z,15.90
2019-02-23T05:06:37.857Z,17.13
2019-02-23T05:09:07.208Z,16.13
2019-02-23T05:11:35.971Z,15.40
2019-02-23T05:14:04.877Z,15.90
2019-02-23T05:16:33.679Z,15.33
2019-02-23T05:19:02.629Z,15.63
2019-02-23T05:21:31.436Z,15.47
2019-02-23T05:24:00.224Z,15.77
2019-02-23T05:26:28.994Z,16.93
2019-02-23T05:28:57.992Z,16.10
2019-02-23T05:31:26.741Z,16.50
2019-02-23T05:33:55.588Z,15.83
2019-02-23T05:36:24.370Z,16.87
2019-02-23T05:38:53.358Z,15.73
2019-02-23T05:41:22.140Z,15.33
2019-02-23T05:43:51.029Z,16.50
2019-02-23T05:46:19.838Z,15.77
2019-02-23T05:48:48.698Z,16.13
2019-02-23T05:51:18.459Z,15.80
2019-02-23T05:53:47.355Z,15.93
2019-02-23T05:56:16.466Z,16.35
2019-02-23T05:58:45.501Z,15.63
2019-02-23T06:01:14.279Z,16.70
2019-02-23T06:03:43.068Z,16.37
2019-02-23T06:06:11.951Z,17.47
2019-02-23T06:08:40.827Z,15.87
2019-02-23T06:11:09.605Z,16.57
2019-02-23T06:13:38.397Z,16.87
2019-02-23T06:16:07.499Z,16.70
2019-02-23T06:18:36.514Z,15.40
2019-02-23T06:21:05.254Z,15.50
2019-02-23T06:23:34.083Z,16.67
2019-02-23T06:26:02.877Z,17.10
2019-02-23T06:28:32.008Z,16.43
2019-02-23T06:31:00.831Z,16.93
2019-02-23T06:33:29.619Z,17.37
2019-02-23T06:35:58.457Z,16.30
2019-02-23T06:38:31.403Z,16.37
2019-02-23T06:41:00.198Z,15.40
2019-02-23T06:43:29.008Z,16.20
2019-02-23T06:45:57.901Z,17.77
2019-02-23T06:48:26.889Z,17.30
2019-02-23T06:50:55.768Z,16.70
2019-02-23T06:53:24.652Z,17.13
2019-02-23T06:55:53.513Z,16.63
2019-02-23T06:58:22.506Z,17.37
2019-02-23T07:00:51.506Z,16.93
2019-02-23T07:03:20.313Z,17.37
2019-02-23T07:05:49.906Z,17.87
2019-02-23T07:08:18.973Z,18.43
2019-02-23T07:10:50.858Z,17.37
2019-02-23T07:13:19.756Z,16.97
2019-02-23T07:15:48.553Z,18.07
2019-02-23T07:18:17.607Z,16.13
2019-02-23T07:20:46.574Z,16.47
2019-02-23T07:23:15.382Z,16.73
2019-02-23T07:25:44.207Z,15.97
2019-02-23T07:28:13.089Z,15.73
2019-02-23T07:30:41.921Z,17.00
2019-02-23T07:33:10.773Z,17.20
2019-02-23T07:35:39.586Z,16.90
2019-02-23T07:38:08.660Z,16.83
2019-02-23T07:40:37.475Z,17.27
2019-02-23T07:43:06.260Z,16.43
2019-02-23T07:45:35.142Z,16.93
2019-02-23T07:48:04.274Z,17.17
2019-02-23T07:50:33.109Z,17.47
2019-02-23T07:53:01.918Z,16.13
2019-02-23T07:55:30.722Z,16.47
2019-02-23T07:57:59.509Z,17.00
2019-02-23T08:00:28.465Z,17.07
2019-02-23T08:02:57.272Z,16.67
2019-02-23T08:05:26.127Z,16.97
2019-02-23T08:07:54.931Z,16.70
2019-02-23T08:10:23.845Z,17.30
2019-02-23T08:12:52.638Z,16.60
2019-02-23T08:15:21.548Z,16.90
2019-02-23T08:17:50.339Z,16.97
2019-02-23T08:20:19.410Z,16.90
2019-02-23T08:22:48.191Z,16.07
2019-02-23T08:25:17.076Z,16.50
2019-02-23T08:27:45.911Z,17.73
2019-02-23T08:30:15.046Z,16.67
2019-02-23T08:32:43.866Z,15.50
2019-02-23T08:35:12.797Z,16.20
2019-02-23T08:37:41.550Z,15.57
2019-02-23T08:40:11.192Z,16.00
2019-02-23T08:42:40.024Z,17.23
2019-02-23T08:45:10.008Z,15.67
2019-02-23T08:47:38.936Z,16.13
2019-02-23T08:50:10.551Z,15.32
2019-02-23T08:52:48.614Z,14.93
2019-02-23T08:55:10.389Z,16.17
2019-02-23T08:57:39.321Z,16.00
2019-02-23T09:00:12.177Z,15.50
2019-02-23T09:02:41.137Z,14.67
2019-02-23T09:05:10.708Z,14.77
2019-02-23T09:07:39.529Z,14.65
2019-02-23T09:10:10.521Z,14.47
2019-02-23T09:12:39.489Z,15.70
2019-02-23T09:15:08.791Z,14.33
2019-02-23T09:17:37.582Z,15.53
2019-02-23T09:20:07.117Z,15.30
2019-02-23T09:22:35.974Z,15.30
2019-02-23T09:25:04.870Z,15.03
2019-02-23T09:27:33.663Z,15.50
2019-02-23T09:30:02.724Z,14.33
2019-02-23T09:32:31.538Z,14.40
2019-02-23T09:35:00.437Z,14.93
2019-02-23T09:37:29.264Z,14.70
2019-02-23T09:39:58.211Z,15.33
2019-02-23T09:42:26.951Z,15.83
2019-02-23T09:44:55.783Z,14.20
2019-02-23T09:47:24.761Z,15.07
2019-02-23T09:49:53.765Z,14.00
2019-02-23T09:52:22.592Z,14.90
2019-02-23T09:54:51.438Z,14.87
2019-02-23T09:57:20.239Z,15.23
2019-02-23T09:59:49.305Z,14.90
2019-02-23T10:02:18.090Z,14.43
2019-02-23T10:04:46.912Z,14.27
2019-02-23T10:07:15.690Z,14.27
2019-02-23T10:09:44.490Z,15.03
2019-02-23T10:12:13.281Z,14.27
2019-02-23T10:14:42.043Z,14.60
2019-02-23T10:17:10.956Z,14.18
2019-02-23T10:19:41.114Z,13.97
2019-02-23T10:22:09.889Z,14.40
2019-02-23T10:24:38.679Z,14.23
2019-02-23T10:27:07.419Z,14.03
2019-02-23T10:29:36.427Z,14.10
2019-02-23T10:32:05.210Z,14.33
2019-02-23T10:34:34.052Z,13.93
2019-02-23T10:37:02.965Z,13.73
2019-02-23T10:39:32.065Z,13.80
2019-02-23T10:42:00.960Z,14.23
2019-02-23T10:44:29.786Z,14.70
2019-02-23T10:46:58.549Z,14.27
2019-02-23T10:49:27.520Z,14.50
2019-02-23T10:51:56.393Z,14.87
2019-02-23T10:54:25.249Z,13.87
2019-02-23T10:56:54.096Z,14.20
2019-02-23T10:59:23.082Z,14.73
2019-02-23T11:01:51.901Z,14.53
2019-02-23T11:04:20.754Z,14.57
2019-02-23T11:06:49.597Z,13.73
2019-02-23T11:09:22.144Z,14.83
2019-02-23T11:11:50.943Z,13.77
2019-02-23T11:14:19.814Z,14.60
2019-02-23T11:16:48.845Z,13.87
2019-02-23T11:19:17.974Z,14.43
2019-02-23T11:21:47.118Z,14.33
2019-02-23T11:24:18.332Z,14.20
2019-02-23T11:26:46.718Z,13.30
2019-02-23T11:29:15.719Z,13.83
2019-02-23T11:31:44.697Z,13.53
2019-02-23T11:34:13.575Z,13.03
2019-02-23T11:36:42.467Z,13.47
2019-02-23T11:39:11.762Z,13.63
2019-02-23T11:41:40.579Z,13.17
2019-02-23T11:44:09.516Z,12.90
2019-02-23T11:46:38.350Z,13.00
2019-02-23T11:49:08.322Z,13.37
2019-02-23T11:51:37.356Z,12.57
2019-02-23T11:54:06.519Z,13.70
2019-02-23T11:56:35.349Z,13.57
2019-02-23T11:59:04.538Z,12.47
2019-02-23T12:01:33.338Z,12.63
2019-02-23T12:04:02.217Z,12.87
2019-02-23T12:06:31.016Z,13.60
2019-02-23T12:09:00.016Z,13.17
2019-02-23T12:11:28.796Z,12.20
2019-02-23T12:13:57.599Z,12.33
2019-02-23T12:16:26.409Z,12.30
2019-02-23T12:18:55.344Z,13.07
2019-02-23T12:21:24.230Z,13.32
2019-02-23T12:23:53.033Z,13.27
2019-02-23T12:26:21.924Z,11.30
2019-02-23T12:28:50.960Z,12.37
2019-02-23T12:31:19.825Z,13.37
2019-02-23T12:33:48.590Z,13.03
2019-02-23T12:36:17.407Z,11.60
2019-02-23T12:38:46.710Z,12.20
2019-02-23T12:41:15.472Z,12.27
2019-02-23T12:43:44.288Z,12.97
2019-02-23T12:46:13.137Z,12.53
2019-02-23T12:48:42.075Z,13.43
2019-02-23T12:51:10.917Z,12.33
2019-02-23T12:53:39.860Z,12.27
2019-02-23T12:56:08.701Z,11.87
2019-02-23T12:58:37.807Z,11.63
2019-02-23T13:01:06.603Z,11.87
2019-02-23T13:03:35.473Z,11.57
2019-02-23T13:06:04.359Z,12.27
2019-02-23T13:09:10.787Z,11.80
2019-02-23T13:11:39.654Z,10.50
2019-02-23T13:14:34.146Z,11.10
2019-02-23T13:17:42.683Z,11.33
2019-02-23T13:20:31.115Z,11.73
2019-02-23T13:23:36.728Z,11.53
2019-02-23T13:26:44.689Z,11.30
2019-02-23T13:29:35.087Z,10.83
2019-02-23T13:32:41.399Z,10.63
2019-02-23T13:35:32.777Z,10.77
2019-02-23T13:38:21.527Z,11.20
2019-02-23T13:41:17.353Z,10.50
2019-02-23T13:44:12.138Z,10.93
2019-02-23T13:47:02.648Z,11.57
2019-02-23T13:50:19.119Z,10.83
2019-02-23T13:53:20.093Z,10.77
2019-02-23T13:56:25.233Z,9.83
2019-02-23T13:59:50.540Z,9.83
2019-02-23T14:02:55.248Z,9.73
2019-02-23T14:05:53.040Z,9.77
2019-02-23T14:09:04.626Z,9.60
2019-02-23T14:12:09.518Z,9.10
2019-02-23T14:15:09.561Z,9.60
2019-02-23T14:17:46.550Z,8.87
2019-02-23T14:20:53.018Z,8.35
2019-02-23T14:24:19.488Z,8.70
2019-02-23T14:27:29.823Z,8.73
2019-02-23T14:30:38.333Z,8.67
2019-02-23T14:33:44.794Z,8.03
2019-02-23T14:36:49.247Z,7.93
2019-02-23T14:40:13.948Z,7.70
2019-02-23T14:43:36.317Z,7.60
2019-02-23T14:46:51.336Z,7.23
2019-02-23T14:49:42.671Z,7.20
2019-02-23T14:52:42.131Z,7.07
2019-02-23T14:56:07.599Z,7.63
2019-02-23T14:59:11.626Z,6.53
2019-02-23T15:02:03.137Z,6.70
2019-02-23T15:05:00.352Z,6.30
2019-02-23T15:08:22.606Z,6.47
2019-02-23T15:11:35.980Z,5.90
2019-02-23T15:14:26.147Z,5.93
2019-02-23T15:17:48.833Z,6.03
2019-02-23T15:21:17.087Z,6.30
2019-02-23T15:24:30.326Z,6.63
2019-02-23T15:27:28.158Z,8.17
2019-02-23T15:30:14.037Z,8.63
2019-02-23T15:33:20.284Z,8.77
2019-02-23T15:36:09.955Z,7.93
2019-02-23T15:39:07.703Z,6.53
2019-02-23T15:41:55.932Z,6.30
2019-02-23T15:44:51.411Z,5.87
2019-02-23T15:47:53.153Z,5.87
2019-02-23T15:50:22.085Z,5.47
2019-02-23T15:52:50.985Z,5.90
2019-02-23T15:55:26.093Z,5.40
2019-02-23T15:57:50.475Z,5.80
2019-02-23T16:00:19.575Z,5.63
2019-02-23T16:02:48.407Z,5.43
2019-02-23T16:05:17.398Z,5.63
2019-02-23T16:07:46.216Z,5.53
2019-02-23T16:10:17.819Z,6.43
2019-02-23T16:12:46.824Z,6.63
2019-02-23T16:15:15.711Z,5.45
2019-02-23T16:17:44.500Z,5.63
2019-02-23T16:20:13.606Z,7.40
2019-02-23T16:22:42.566Z,8.70
2019-02-23T16:25:11.530Z,8.60
2019-02-23T16:27:40.403Z,8.80
2019-02-23T16:30:09.663Z,9.53
2019-02-23T16:32:38.467Z,9.83
2019-02-23T16:35:07.369Z,10.33
2019-02-23T16:37:36.220Z,9.20
2019-02-23T16:40:05.358Z,8.57
2019-02-23T16:42:34.297Z,9.67
2019-02-23T16:45:03.223Z,9.07
2019-02-23T16:47:31.978Z,9.40
2019-02-23T16:50:01.036Z,9.53
2019-02-23T16:52:29.862Z,9.40
2019-02-23T16:54:58.687Z,8.73
2019-02-23T16:57:27.517Z,8.73
2019-02-23T16:59:56.850Z,8.80
2019-02-23T17:02:25.709Z,9.10
2019-02-23T17:04:54.598Z,8.67
2019-02-23T17:07:23.554Z,8.77
2019-02-23T17:09:52.950Z,9.03
2019-02-23T17:12:21.902Z,9.00
2019-02-23T17:14:50.752Z,8.63
2019-02-23T17:17:19.713Z,8.70
2019-02-23T17:19:48.711Z,9.27
2019-02-23T17:22:17.509Z,9.07
2019-02-23T17:24:46.412Z,9.30
2019-02-23T17:27:15.292Z,8.17
2019-02-23T17:29:44.464Z,9.13
2019-02-23T17:32:13.298Z,8.77
2019-02-23T17:34:42.186Z,8.27
2019-02-23T17:37:11.117Z,8.17
2019-02-23T17:39:40.467Z,8.57
2019-02-23T17:42:09.819Z,8.30
2019-02-23T17:44:40.354Z,8.47
2019-02-23T17:47:09.303Z,8.43
2019-02-23T17:49:38.291Z,8.87
2019-02-23T17:52:07.280Z,8.53
2019-02-23T17:54:36.551Z,8.80
2019-02-23T17:57:05.537Z,8.00
2019-02-23T17:59:35.566Z,8.57
2019-02-23T18:02:04.811Z,8.27
2019-02-23T18:04:33.710Z,8.03
2019-02-23T18:07:02.625Z,9.33
2019-02-23T18:09:31.740Z,9.50
2019-02-23T18:12:00.717Z,8.83
2019-02-23T18:14:30.063Z,8.93
2019-02-23T18:16:58.910Z,8.40
2019-02-23T18:19:27.943Z,8.83
2019-02-23T18:21:56.819Z,9.00
2019-02-23T18:24:25.688Z,8.47
2019-02-23T18:26:54.481Z,8.53
2019-02-23T18:29:23.585Z,9.10
2019-02-23T18:31:52.416Z,8.27
2019-02-23T18:34:21.243Z,8.90
2019-02-23T18:36:50.042Z,9.00
2019-02-23T18:39:19.241Z,9.03
2019-02-23T18:41:48.144Z,9.47
2019-02-23T18:44:17.055Z,9.13
2019-02-23T18:46:46.060Z,9.67
2019-02-23T18:49:16.150Z,9.77
2019-02-23T18:51:45.033Z,9.27
2019-02-23T18:54:13.925Z,9.50
2019-02-23T18:56:42.851Z,9.13
2019-02-23T18:59:11.727Z,8.73
2019-02-23T19:01:40.561Z,9.37
2019-02-23T19:04:09.449Z,9.77
2019-02-23T19:06:38.287Z,9.37
2019-02-23T19:09:07.489Z,9.70
2019-02-23T19:11:36.349Z,9.20
2019-02-23T19:14:05.124Z,9.17
2019-02-23T19:16:34.029Z,9.50
2019-02-23T19:19:03.021Z,9.07
2019-02-23T19:21:31.833Z,9.17
2019-02-23T19:24:00.628Z,9.40
2019-02-23T19:26:37.698Z,9.23
2019-02-23T19:29:00.217Z,9.30
2019-02-23T19:31:29.006Z,9.57
2019-02-23T19:33:57.804Z,10.07
2019-02-23T19:36:26.662Z,10.00
2019-02-23T19:38:55.581Z,9.63
2019-02-23T19:41:24.522Z,10.50
2019-02-23T19:43:53.277Z,9.60
2019-02-23T19:46:22.598Z,10.13
2019-02-23T19:48:51.564Z,10.50
2019-02-23T19:51:20.456Z,10.30
2019-02-23T19:53:49.672Z,10.20
2019-02-23T19:56:18.496Z,9.70
2019-02-23T19:58:47.587Z,9.83
2019-02-23T20:01:16.401Z,10.27
2019-02-23T20:03:45.179Z,10.30
2019-02-23T20:06:14.105Z,9.60
2019-02-23T20:08:43.198Z,10.10
2019-02-23T20:11:12.156Z,9.97
2019-02-23T20:13:40.966Z,10.47
2019-02-23T20:16:09.744Z,9.70
2019-02-23T20:18:38.648Z,10.23
2019-02-23T20:21:07.441Z,10.43
2019-02-23T20:23:36.318Z,10.27
2019-02-23T20:26:05.191Z,10.40
2019-02-23T20:28:34.174Z,11.20
2019-02-23T20:31:03.035Z,10.77
2019-02-23T20:33:31.849Z,10.57
2019-02-23T20:36:00.636Z,10.27
2019-02-23T20:38:29.543Z,10.53
2019-02-23T20:40:58.451Z,11.03
2019-02-23T20:43:27.268Z,10.40
2019-02-23T20:45:56.081Z,10.47
2019-02-23T20:48:25.109Z,10.47
2019-02-23T20:50:54.016Z,10.37
2019-02-23T20:53:22.798Z,10.53
2019-02-23T20:55:51.621Z,10.57
2019-02-23T20:58:20.643Z,10.30
2019-02-23T21:00:49.671Z,11.17
2019-02-23T21:03:18.540Z,10.87
2019-02-23T21:05:47.395Z,11.10
2019-02-23T21:08:16.647Z,9.87
2019-02-23T21:10:45.564Z,11.47
2019-02-23T21:13:14.376Z,11.10
2019-02-23T21:15:43.201Z,11.23
2019-02-23T21:18:12.202Z,11.07
2019-02-23T21:20:41.197Z,11.60
2019-02-23T21:23:09.987Z,11.57
2019-02-23T21:25:38.793Z,11.20
2019-02-23T21:28:07.692Z,11.27
2019-02-23T21:30:36.557Z,10.53
2019-02-23T21:33:05.630Z,11.60
2019-02-23T21:35:34.639Z,11.50
2019-02-23T21:38:03.548Z,10.97
2019-02-23T21:40:32.426Z,11.43
2019-02-23T21:43:01.305Z,11.47
2019-02-23T21:45:30.120Z,11.80
2019-02-23T21:47:59.155Z,11.60
2019-02-23T21:50:28.055Z,11.50
2019-02-23T21:52:56.850Z,11.27
2019-02-23T21:55:25.664Z,11.37
2019-02-23T21:57:54.432Z,11.07
2019-02-23T22:00:23.298Z,11.37
2019-02-23T22:02:52.149Z,12.43
2019-02-23T22:05:20.966Z,11.33
2019-02-23T22:07:49.765Z,11.77
2019-02-23T22:10:18.881Z,12.55
2019-02-23T22:12:47.664Z,13.67
2019-02-23T22:15:16.685Z,11.60
2019-02-23T22:17:45.541Z,12.53
2019-02-23T22:20:14.694Z,12.80
2019-02-23T22:22:43.684Z,11.73
2019-02-23T22:25:12.544Z,10.97
2019-02-23T22:27:41.479Z,11.80
2019-02-23T22:30:10.765Z,11.40
2019-02-23T22:32:41.696Z,12.03
2019-02-23T22:35:10.571Z,11.30
2019-02-23T22:37:39.455Z,11.47
2019-02-23T22:40:08.885Z,11.97
2019-02-23T22:42:37.849Z,11.87
2019-02-23T22:45:07.352Z,11.60
2019-02-23T22:47:38.347Z,11.40
2019-02-23T22:50:07.647Z,11.53
2019-02-23T22:52:36.397Z,11.43
2019-02-23T22:55:05.958Z,12.10
2019-02-23T22:57:40.557Z,10.13
2019-02-23T23:00:06.414Z,11.10
2019-02-23T23:02:35.353Z,10.82
2019-02-23T23:05:04.542Z,11.57
2019-02-23T23:07:33.318Z,11.37
2019-02-23T23:10:02.241Z,11.63
2019-02-23T23:12:31.075Z,11.60
2019-02-23T23:15:00.714Z,11.10
2019-02-23T23:17:30.490Z,10.82
2019-02-23T23:19:59.558Z,11.77
2019-02-23T23:22:28.383Z,11.53
2019-02-23T23:24:57.151Z,10.80
2019-02-23T23:27:25.943Z,11.57
2019-02-23T23:29:54.929Z,11.23
2019-02-23T23:32:24.087Z,11.37
2019-02-23T23:34:53.086Z,10.77
2019-02-23T23:37:22.765Z,11.50
2019-02-23T23:39:51.877Z,11.00
2019-02-23T23:42:20.802Z,11.13
2019-02-23T23:44:49.595Z,10.47
2019-02-23T23:47:19.387Z,11.50
2019-02-23T23:49:48.209Z,10.90
2019-02-23T23:52:17.025Z,10.77
2019-02-23T23:54:45.770Z,10.60
2019-02-23T23:57:14.615Z,10.43
2019-02-23T23:59:43.645Z,10.73
